KHDN/HDN METAR and TAF weather

Enter ICAO airport designator
Station Type Date Time Source
KHDN METAR 2022/08/13 11:56 UTC NOAA

KHDN 131156Z 09008KT 10SM CLR 16/12 A3035 RMK AO2 SLP180 60008 70008 T01610122 10200 20156 56007


Station Type Date Time Source
KHDN Decoded METAR 2022/08/13 11:56 UTC NOAA

Hayden, Yampa Valley Airport, CO, United States (KHDN) 40-29N 107-13W
Aug 13, 2022 - 07:56 AM EDT / 2022.08.13 1156 UTC
Wind: from the E (090 degrees) at 9 MPH (8 KT):0
Visibility: 10 mile(s):0
Sky conditions: clear
Temperature: 61.0 F (16.1 C)
Dew Point: 54.0 F (12.2 C)
Relative Humidity: 77%
Pressure (altimeter): 30.35 in. Hg (1027 hPa)
Pressure tendency: 0.02 inches (0.7 hPa) lower than three hours ago
ob: KHDN 131156Z 09008KT 10SM CLR 16/12 A3035 RMK AO2 SLP180 60008 70008 T01610122 10200 20156 56007
cycle: 12

Station Type Date Time Source
KHDN TAF 2022/08/13 12:24 UTC NOAA

TAF KHDN 131122Z 1312/1412 11008KT P6SM SCT100
FM131600 VRB04KT P6SM SCT100
FM132000 25009KT P6SM VCTS SCT080CB BKN100
FM140000 32008KT P6SM VCTS SCT080CB BKN100
FM140400 13007KT P6SM FEW080 SCT100

Example: see airport list